createdAt,value
2018-04-17T00:01:38.010Z,13.79
2018-04-17T00:04:05.539Z,13.83
2018-04-17T00:06:33.093Z,13.79
2018-04-17T00:09:00.877Z,13.79
2018-04-17T00:11:28.423Z,13.79
2018-04-17T00:13:55.988Z,13.79
2018-04-17T00:16:23.544Z,13.78
2018-04-17T00:18:51.136Z,13.79
2018-04-17T00:21:18.698Z,13.80
2018-04-17T00:23:46.552Z,13.76
2018-04-17T00:26:14.056Z,13.71
2018-04-17T00:28:41.615Z,13.67
2018-04-17T00:31:09.130Z,13.65
2018-04-17T00:33:36.626Z,13.60
2018-04-17T00:36:04.168Z,13.56
2018-04-17T00:38:31.716Z,13.55
2018-04-17T00:40:59.580Z,13.51
2018-04-17T00:43:27.175Z,13.45
2018-04-17T00:48:28.591Z,13.46
2018-04-17T00:50:56.106Z,13.41
2018-04-17T00:53:35.498Z,13.36
2018-04-17T00:56:03.031Z,13.35
2018-04-17T00:58:30.567Z,13.32
2018-04-17T01:00:58.105Z,13.31
2018-04-17T01:03:25.626Z,13.32
2018-04-17T01:05:53.144Z,13.32
2018-04-17T01:08:20.705Z,13.24
2018-04-17T01:10:48.235Z,13.21
2018-04-17T01:13:15.750Z,13.24
2018-04-17T01:15:43.384Z,13.23
2018-04-17T01:18:10.905Z,13.19
2018-04-17T01:20:38.440Z,13.13
2018-04-17T01:23:05.968Z,13.10
2018-04-17T01:25:33.513Z,13.09
2018-04-17T01:28:01.043Z,13.08
2018-04-17T01:30:28.587Z,13.07
2018-04-17T01:32:56.477Z,13.03
2018-04-17T01:35:23.993Z,12.98
2018-04-17T01:37:51.541Z,12.95
2018-04-17T01:40:19.654Z,12.87
2018-04-17T01:42:47.202Z,12.88
2018-04-17T01:45:15.594Z,12.84
2018-04-17T01:47:43.118Z,12.84
2018-04-17T01:50:10.646Z,12.80
2018-04-17T01:52:38.248Z,12.82
2018-04-17T01:55:06.076Z,12.79
2018-04-17T01:57:33.613Z,12.75
2018-04-17T02:00:01.182Z,12.76
2018-04-17T02:02:28.955Z,12.76
2018-04-17T02:04:56.486Z,12.72
2018-04-17T02:07:24.390Z,12.76
2018-04-17T02:09:51.915Z,12.72
2018-04-17T02:12:19.707Z,12.74
2018-04-17T02:14:47.266Z,12.73
2018-04-17T02:17:14.844Z,12.71
2018-04-17T02:19:43.064Z,12.71
2018-04-17T02:22:10.846Z,12.69
2018-04-17T02:24:38.387Z,12.64
2018-04-17T02:27:05.902Z,12.60
2018-04-17T02:29:33.480Z,12.66
2018-04-17T02:32:01.010Z,12.65
2018-04-17T02:34:28.593Z,12.69
2018-04-17T02:36:56.437Z,12.63
2018-04-17T02:39:23.955Z,12.64
2018-04-17T02:41:51.512Z,12.62
2018-04-17T02:44:19.052Z,12.63
2018-04-17T02:46:46.606Z,12.62
2018-04-17T02:49:14.130Z,12.61
2018-04-17T02:51:41.722Z,12.59
2018-04-17T02:54:09.353Z,12.57
2018-04-17T02:56:36.860Z,12.55
2018-04-17T02:59:04.402Z,12.53
2018-04-17T03:01:31.956Z,12.47
2018-04-17T03:03:59.497Z,12.43
2018-04-17T03:06:27.384Z,12.40
2018-04-17T03:08:54.922Z,12.40
2018-04-17T03:11:22.482Z,12.36
2018-04-17T03:13:50.043Z,12.34
2018-04-17T03:16:17.552Z,12.37
2018-04-17T03:18:45.348Z,12.35
2018-04-17T03:21:13.267Z,12.37
2018-04-17T03:23:40.786Z,12.33
2018-04-17T03:26:08.584Z,12.33
2018-04-17T03:28:36.138Z,12.29
2018-04-17T03:31:03.712Z,12.29
2018-04-17T03:33:31.398Z,12.27
2018-04-17T03:35:59.245Z,12.24
2018-04-17T03:38:26.814Z,12.25
2018-04-17T03:40:54.346Z,12.26
2018-04-17T03:43:21.909Z,12.27
2018-04-17T03:45:50.115Z,12.27
2018-04-17T03:48:17.669Z,12.25
2018-04-17T03:50:45.248Z,12.21
2018-04-17T03:53:12.787Z,12.21
2018-04-17T03:55:40.639Z,12.22
2018-04-17T03:58:08.241Z,12.19
2018-04-17T04:00:36.114Z,12.13
2018-04-17T04:03:03.671Z,12.12
2018-04-17T04:05:31.205Z,12.12
2018-04-17T04:07:58.759Z,12.11
2018-04-17T04:10:26.610Z,12.08
2018-04-17T04:12:54.275Z,12.09
2018-04-17T04:15:21.777Z,12.05
2018-04-17T04:18:01.403Z,12.03
2018-04-17T04:20:41.022Z,12.02
2018-04-17T04:23:20.444Z,12.03
2018-04-17T04:25:59.674Z,12.01
2018-04-17T04:28:27.670Z,12.01
2018-04-17T04:30:55.205Z,11.96
2018-04-17T04:33:23.097Z,11.98
2018-04-17T04:35:50.671Z,12.02
2018-04-17T04:38:18.213Z,11.99
2018-04-17T04:40:45.752Z,11.99
2018-04-17T04:43:13.826Z,12.01
2018-04-17T04:45:41.333Z,12.00
2018-04-17T04:48:08.950Z,12.03
2018-04-17T04:50:36.506Z,12.07
2018-04-17T04:53:04.020Z,12.07
2018-04-17T04:55:31.559Z,12.09
2018-04-17T04:57:59.138Z,12.11
2018-04-17T05:00:26.664Z,12.11
2018-04-17T05:02:54.169Z,12.11
2018-04-17T05:05:21.759Z,12.16
2018-04-17T05:07:49.296Z,12.18
2018-04-17T05:10:16.888Z,12.19
2018-04-17T05:12:44.444Z,12.21
2018-04-17T05:15:11.953Z,12.21
2018-04-17T05:17:39.558Z,12.25
2018-04-17T05:20:07.077Z,12.28
2018-04-17T05:22:34.710Z,12.29
2018-04-17T05:25:02.270Z,12.32
2018-04-17T05:27:29.803Z,12.35
2018-04-17T05:29:57.329Z,12.31
2018-04-17T05:32:24.921Z,12.36
2018-04-17T05:34:52.453Z,12.41
2018-04-17T05:37:19.983Z,12.48
2018-04-17T05:39:47.750Z,12.52
2018-04-17T05:42:15.388Z,12.54
2018-04-17T05:44:42.899Z,12.58
2018-04-17T05:47:10.484Z,12.59
2018-04-17T05:49:38.864Z,12.68
2018-04-17T05:52:06.393Z,12.71
2018-04-17T05:54:33.942Z,12.76
2018-04-17T05:57:01.483Z,12.84
2018-04-17T05:59:29.020Z,12.89
2018-04-17T06:01:56.561Z,13.02
2018-04-17T06:04:24.146Z,13.16
2018-04-17T06:06:52.450Z,13.34
2018-04-17T06:09:19.960Z,13.57
2018-04-17T06:11:47.514Z,13.69
2018-04-17T06:14:15.045Z,13.89
2018-04-17T06:16:42.979Z,14.07
2018-04-17T06:19:10.556Z,14.18
2018-04-17T06:21:38.847Z,14.34
2018-04-17T06:24:06.373Z,14.40
2018-04-17T06:26:33.898Z,14.63
2018-04-17T06:29:01.390Z,14.62
2018-04-17T06:31:28.989Z,14.39
2018-04-17T06:33:56.505Z,14.49
2018-04-17T06:36:24.060Z,14.75
2018-04-17T06:38:51.599Z,15.09
2018-04-17T06:41:19.128Z,15.00
2018-04-17T06:43:46.683Z,15.35
2018-04-17T06:46:14.203Z,15.23
2018-04-17T06:48:42.162Z,15.28
2018-04-17T06:51:09.650Z,15.47
2018-04-17T06:53:37.447Z,15.75
2018-04-17T06:56:04.986Z,16.10
2018-04-17T06:58:32.772Z,16.30
2018-04-17T07:01:00.318Z,16.57
2018-04-17T07:03:27.877Z,16.65
2018-04-17T07:05:55.408Z,16.95
2018-04-17T07:08:23.000Z,17.30
2018-04-17T07:10:50.546Z,17.46
2018-04-17T07:13:18.096Z,17.29
2018-04-17T07:15:46.019Z,17.63
2018-04-17T07:18:13.559Z,18.00
2018-04-17T07:20:41.112Z,18.08
2018-04-17T07:23:08.672Z,18.13
2018-04-17T07:25:36.341Z,18.53
2018-04-17T07:28:03.846Z,18.72
2018-04-17T07:30:31.349Z,18.70
2018-04-17T07:32:58.991Z,18.83
2018-04-17T07:35:26.800Z,19.04
2018-04-17T07:37:54.470Z,19.06
2018-04-17T07:40:22.189Z,19.23
2018-04-17T07:42:49.714Z,19.11
2018-04-17T07:45:17.552Z,18.95
2018-04-17T07:47:56.963Z,19.13
2018-04-17T07:50:24.534Z,19.13
2018-04-17T07:52:52.118Z,19.30
2018-04-17T07:55:19.674Z,19.09
2018-04-17T07:57:47.202Z,19.17
2018-04-17T08:00:14.745Z,18.95
2018-04-17T08:02:42.348Z,18.93
2018-04-17T08:05:09.882Z,19.08
2018-04-17T08:07:37.468Z,19.32
2018-04-17T08:10:06.059Z,19.49
2018-04-17T08:12:33.615Z,19.99
2018-04-17T08:15:01.485Z,20.32
2018-04-17T08:17:29.053Z,20.29
2018-04-17T08:19:56.669Z,20.38
2018-04-17T08:22:24.239Z,20.46
2018-04-17T08:24:52.255Z,20.58
2018-04-17T08:27:19.850Z,20.67
2018-04-17T08:29:47.447Z,20.86
2018-04-17T08:32:15.056Z,21.51
2018-04-17T08:34:42.598Z,21.92
2018-04-17T08:37:10.142Z,22.26
2018-04-17T08:39:37.766Z,22.57
2018-04-17T08:42:05.377Z,22.91
2018-04-17T08:44:33.235Z,23.18
2018-04-17T08:47:00.807Z,23.69
2018-04-17T08:49:28.661Z,24.23
2018-04-17T08:51:56.186Z,24.69
2018-04-17T08:54:23.774Z,24.38
2018-04-17T08:56:51.294Z,24.15
2018-04-17T08:59:19.137Z,24.47
2018-04-17T09:01:46.687Z,24.57
2018-04-17T09:04:14.217Z,24.86
2018-04-17T09:06:41.791Z,25.57
2018-04-17T09:09:09.305Z,26.06
2018-04-17T09:11:37.631Z,25.84
2018-04-17T09:14:05.151Z,26.07
2018-04-17T09:16:32.722Z,25.92
2018-04-17T09:19:00.623Z,26.07
2018-04-17T09:21:28.156Z,25.52
2018-04-17T09:23:55.791Z,25.95
2018-04-17T09:26:23.294Z,25.95
2018-04-17T09:28:50.845Z,25.79
2018-04-17T09:31:18.443Z,25.09
2018-04-17T09:33:46.014Z,24.81
2018-04-17T09:36:13.565Z,24.85
2018-04-17T09:38:41.117Z,24.59
2018-04-17T09:41:08.675Z,24.79
2018-04-17T09:43:36.274Z,24.67
2018-04-17T09:46:04.089Z,24.50
2018-04-17T09:48:31.971Z,24.40
2018-04-17T09:50:59.827Z,24.18
2018-04-17T09:53:27.356Z,24.27
2018-04-17T09:55:54.919Z,24.81
2018-04-17T09:58:22.448Z,24.95
2018-04-17T10:00:55.510Z,25.12
2018-04-17T10:03:23.263Z,25.25
2018-04-17T10:05:50.786Z,24.68
2018-04-17T10:08:18.369Z,24.61
2018-04-17T10:10:45.966Z,24.38
2018-04-17T10:13:13.575Z,24.59
2018-04-17T10:15:41.328Z,24.74
2018-04-17T10:18:08.891Z,25.11
2018-04-17T10:20:36.467Z,25.39
2018-04-17T10:23:04.052Z,25.93
2018-04-17T10:25:31.629Z,26.02
2018-04-17T10:27:59.193Z,24.42
2018-04-17T10:30:26.718Z,24.38
2018-04-17T10:32:54.260Z,25.01
2018-04-17T10:35:21.793Z,25.24
2018-04-17T10:37:49.348Z,25.27
2018-04-17T10:40:16.861Z,25.63
2018-04-17T10:42:44.388Z,25.95
2018-04-17T10:45:11.929Z,25.97
2018-04-17T10:47:39.488Z,25.92
2018-04-17T10:50:07.049Z,25.94
2018-04-17T10:52:34.554Z,26.97
2018-04-17T10:55:02.112Z,27.26
2018-04-17T10:57:29.643Z,27.52
2018-04-17T10:59:57.208Z,27.00
2018-04-17T11:02:24.838Z,27.41
2018-04-17T11:04:52.487Z,28.02
2018-04-17T11:07:19.989Z,28.17
2018-04-17T11:09:47.517Z,28.20
2018-04-17T11:12:15.075Z,28.24
2018-04-17T11:14:42.626Z,28.38
2018-04-17T11:17:10.227Z,28.23
2018-04-17T11:19:37.789Z,28.96
2018-04-17T11:22:05.554Z,29.35
2018-04-17T11:24:33.109Z,29.79
2018-04-17T11:27:00.945Z,30.38
2018-04-17T11:29:28.465Z,31.76
2018-04-17T11:31:56.011Z,32.87
2018-04-17T11:34:23.541Z,33.33
2018-04-17T11:36:51.087Z,33.01
2018-04-17T11:39:18.626Z,34.72
2018-04-17T11:41:46.135Z,35.45
2018-04-17T11:44:13.661Z,36.57
2018-04-17T11:46:41.555Z,35.82
2018-04-17T11:49:09.091Z,36.40
2018-04-17T11:51:36.642Z,36.40
2018-04-17T11:54:04.438Z,33.62
2018-04-17T11:56:31.968Z,30.24
2018-04-17T11:58:59.590Z,29.42
2018-04-17T12:01:27.157Z,31.75
2018-04-17T12:03:54.720Z,32.54
2018-04-17T12:06:22.335Z,33.53
2018-04-17T12:08:51.749Z,35.16
2018-04-17T12:11:19.348Z,36.29
2018-04-17T12:13:46.888Z,35.64
2018-04-17T12:16:14.524Z,36.49
2018-04-17T12:18:42.170Z,37.05
2018-04-17T12:21:10.286Z,36.40
2018-04-17T12:23:37.890Z,36.89
2018-04-17T12:26:05.430Z,36.41
2018-04-17T12:28:33.046Z,34.83
2018-04-17T12:31:00.613Z,37.12
2018-04-17T12:33:28.157Z,37.69
2018-04-17T12:35:55.716Z,38.49
2018-04-17T12:38:23.752Z,38.87
2018-04-17T12:40:51.363Z,37.20
2018-04-17T12:43:18.917Z,35.27
2018-04-17T12:45:46.519Z,37.27
2018-04-17T12:48:14.067Z,33.83
2018-04-17T12:50:41.644Z,36.40
2018-04-17T12:53:09.251Z,37.62
2018-04-17T12:55:36.829Z,34.40
2018-04-17T12:58:04.370Z,30.98
2018-04-17T13:00:31.946Z,29.55
2018-04-17T13:02:59.475Z,29.82
2018-04-17T13:05:27.026Z,28.84
2018-04-17T13:07:54.560Z,29.46
2018-04-17T13:10:22.068Z,30.23
2018-04-17T13:12:49.622Z,30.22
2018-04-17T13:15:17.135Z,29.48
2018-04-17T13:17:44.675Z,29.22
2018-04-17T13:20:12.205Z,28.81
2018-04-17T13:22:39.839Z,29.25
2018-04-17T13:25:07.424Z,28.72
2018-04-17T13:27:35.018Z,28.29
2018-04-17T13:30:02.672Z,27.90
2018-04-17T13:32:30.154Z,27.45
2018-04-17T13:34:57.735Z,26.31
2018-04-17T13:37:25.265Z,25.61
2018-04-17T13:39:52.864Z,25.50
2018-04-17T13:42:20.464Z,25.52
2018-04-17T13:44:47.982Z,25.85
2018-04-17T13:47:15.522Z,25.96
2018-04-17T13:49:43.063Z,25.87
2018-04-17T13:52:10.665Z,25.60
2018-04-17T13:54:38.273Z,25.28
2018-04-17T13:57:05.853Z,25.09
2018-04-17T13:59:33.377Z,24.77
2018-04-17T14:02:00.933Z,25.05
2018-04-17T14:04:28.582Z,25.66
2018-04-17T14:06:56.111Z,25.76
2018-04-17T14:09:23.952Z,26.14
2018-04-17T14:11:51.550Z,26.68
2018-04-17T14:14:19.133Z,27.06
2018-04-17T14:16:46.929Z,27.77
2018-04-17T14:19:14.519Z,28.63
2018-04-17T14:21:42.121Z,27.90
2018-04-17T14:24:09.935Z,26.33
2018-04-17T14:26:37.444Z,24.93
2018-04-17T14:29:04.972Z,24.03
2018-04-17T14:31:32.520Z,24.17
2018-04-17T14:34:00.285Z,25.51
2018-04-17T14:36:28.136Z,25.04
2018-04-17T14:38:55.691Z,24.46
2018-04-17T14:41:23.282Z,23.69
2018-04-17T14:43:50.804Z,23.11
2018-04-17T14:46:18.335Z,23.17
2018-04-17T14:48:45.896Z,22.82
2018-04-17T14:51:13.426Z,22.73
2018-04-17T14:53:40.949Z,22.59
2018-04-17T14:56:08.524Z,23.24
2018-04-17T14:58:36.115Z,23.65
2018-04-17T15:01:03.690Z,23.54
2018-04-17T15:03:31.303Z,24.29
2018-04-17T15:05:58.814Z,24.89
2018-04-17T15:08:26.396Z,25.18
2018-04-17T15:10:54.110Z,24.40
2018-04-17T15:13:21.668Z,24.35
2018-04-17T15:15:49.188Z,24.64
2018-04-17T15:18:16.743Z,24.55
2018-04-17T15:20:45.405Z,24.47
2018-04-17T15:23:12.984Z,24.39
2018-04-17T15:25:40.504Z,23.95
2018-04-17T15:28:08.012Z,23.68
2018-04-17T15:30:35.581Z,23.48
2018-04-17T15:33:03.154Z,23.09
2018-04-17T15:35:30.726Z,22.95
2018-04-17T15:37:58.249Z,22.77
2018-04-17T15:40:25.802Z,22.80
2018-04-17T15:42:53.403Z,22.63
2018-04-17T15:45:20.952Z,22.50
2018-04-17T15:47:48.489Z,22.36
2018-04-17T15:50:16.077Z,21.59
2018-04-17T15:52:43.719Z,21.63
2018-04-17T15:55:11.355Z,21.21
2018-04-17T15:57:38.899Z,20.91
2018-04-17T16:00:06.456Z,20.66
2018-04-17T16:02:34.123Z,20.79
2018-04-17T16:05:01.716Z,20.75
2018-04-17T16:07:29.250Z,20.75
2018-04-17T16:09:57.018Z,20.83
2018-04-17T16:12:24.570Z,20.93
2018-04-17T16:14:52.411Z,20.88
2018-04-17T16:17:19.993Z,20.94
2018-04-17T16:19:47.579Z,20.97
2018-04-17T16:22:15.264Z,21.01
2018-04-17T16:24:43.160Z,21.01
2018-04-17T16:27:10.951Z,20.98
2018-04-17T16:29:38.540Z,20.94
2018-04-17T16:32:06.378Z,20.70
2018-04-17T16:34:33.903Z,20.56
2018-04-17T16:37:01.900Z,20.51
2018-04-17T16:39:29.485Z,20.43
2018-04-17T16:41:57.097Z,20.41
2018-04-17T16:44:24.639Z,20.34
2018-04-17T16:46:52.198Z,20.29
2018-04-17T16:49:19.725Z,20.26
2018-04-17T16:51:47.269Z,20.20
2018-04-17T16:54:15.438Z,20.13
2018-04-17T16:56:43.109Z,20.13
2018-04-17T16:59:11.483Z,20.07
2018-04-17T17:01:39.043Z,20.03
2018-04-17T17:04:06.588Z,20.03
2018-04-17T17:06:34.131Z,20.00
2018-04-17T17:09:01.659Z,19.95
2018-04-17T17:11:29.275Z,19.89
2018-04-17T17:13:56.803Z,19.84
2018-04-17T17:16:24.339Z,19.82
2018-04-17T17:18:52.163Z,19.83
2018-04-17T17:21:19.730Z,19.78
2018-04-17T17:23:47.280Z,19.74
2018-04-17T17:26:14.878Z,19.70
2018-04-17T17:28:42.423Z,19.70
2018-04-17T17:31:10.184Z,19.62
2018-04-17T17:33:37.757Z,19.56
2018-04-17T17:36:05.571Z,19.55
2018-04-17T17:38:33.154Z,19.54
2018-04-17T17:41:00.684Z,19.48
2018-04-17T17:43:28.223Z,19.42
2018-04-17T17:45:55.754Z,19.37
2018-04-17T17:48:23.284Z,19.33
2018-04-17T17:50:51.612Z,19.26
2018-04-17T17:53:19.158Z,19.22
2018-04-17T17:55:46.753Z,19.20
2018-04-17T17:58:14.299Z,19.19
2018-04-17T18:00:41.863Z,19.18
2018-04-17T18:03:09.687Z,19.12
2018-04-17T18:05:37.329Z,19.10
2018-04-17T18:08:05.060Z,19.08
2018-04-17T18:10:32.882Z,19.05
2018-04-17T18:13:00.530Z,19.00
2018-04-17T18:15:28.446Z,18.96
2018-04-17T18:17:56.088Z,18.94
2018-04-17T18:20:23.692Z,18.91
2018-04-17T18:22:51.237Z,18.87
2018-04-17T18:25:18.770Z,18.86
2018-04-17T18:27:46.331Z,18.81
2018-04-17T18:30:14.184Z,18.75
2018-04-17T18:32:41.875Z,18.71
2018-04-17T18:35:09.417Z,18.69
2018-04-17T18:37:42.594Z,18.66
2018-04-17T18:42:44.352Z,18.60
2018-04-17T18:45:13.683Z,18.57
2018-04-17T18:47:41.209Z,18.56
2018-04-17T18:50:08.838Z,18.54
2018-04-17T18:52:36.655Z,18.46
2018-04-17T18:55:04.339Z,18.42
2018-04-17T18:57:31.895Z,18.39
2018-04-17T19:00:00.537Z,18.38
2018-04-17T19:02:28.465Z,18.32
2018-04-17T19:04:55.990Z,18.26
2018-04-17T19:07:23.735Z,18.22
2018-04-17T19:09:51.295Z,18.17
2018-04-17T19:12:18.829Z,18.14
2018-04-17T19:14:46.342Z,18.13
2018-04-17T19:17:13.899Z,18.06
2018-04-17T19:19:41.658Z,18.00
2018-04-17T19:22:09.567Z,17.95
2018-04-17T19:24:37.237Z,17.94
2018-04-17T19:27:04.767Z,17.92
2018-04-17T19:29:32.392Z,17.88
2018-04-17T19:32:00.014Z,17.85
2018-04-17T19:34:27.747Z,17.80
2018-04-17T19:36:55.523Z,17.74
2018-04-17T19:39:23.074Z,17.74
2018-04-17T19:41:50.958Z,17.73
2018-04-17T19:44:18.823Z,17.70
2018-04-17T19:46:46.430Z,17.68
2018-04-17T19:49:13.993Z,17.66
2018-04-17T19:51:41.521Z,17.64
2018-04-17T19:54:09.083Z,17.59
2018-04-17T19:56:36.604Z,17.60
2018-04-17T19:59:04.197Z,17.57
2018-04-17T20:01:32.656Z,17.50
2018-04-17T20:04:00.244Z,17.40
2018-04-17T20:06:27.793Z,17.40
2018-04-17T20:08:55.317Z,17.30
2018-04-17T20:11:22.882Z,17.31
2018-04-17T20:13:50.481Z,17.31
2018-04-17T20:16:18.342Z,17.25
2018-04-17T20:18:48.524Z,17.25
2018-04-17T20:21:16.200Z,17.23
2018-04-17T20:23:43.918Z,17.25
2018-04-17T20:26:11.516Z,17.25
2018-04-17T20:28:39.151Z,17.21
2018-04-17T20:31:06.733Z,17.16
2018-04-17T20:33:34.370Z,17.11
2018-04-17T20:36:02.265Z,17.05
2018-04-17T20:38:30.055Z,17.06
2018-04-17T20:40:58.148Z,17.02
2018-04-17T20:43:27.645Z,16.95
2018-04-17T20:45:56.631Z,16.91
2018-04-17T20:48:24.294Z,16.87
2018-04-17T20:50:51.830Z,16.86
2018-04-17T20:53:19.419Z,16.85
2018-04-17T20:55:46.986Z,16.80
2018-04-17T20:58:14.546Z,16.78
2018-04-17T21:00:42.174Z,16.75
2018-04-17T21:03:09.768Z,16.75
2018-04-17T21:05:37.328Z,16.70
2018-04-17T21:08:04.956Z,16.68
2018-04-17T21:10:32.498Z,16.67
2018-04-17T21:13:00.186Z,16.70
2018-04-17T21:15:28.120Z,16.61
2018-04-17T21:17:55.744Z,16.61
2018-04-17T21:20:23.542Z,16.58
2018-04-17T21:22:51.070Z,16.52
2018-04-17T21:25:18.676Z,16.47
2018-04-17T21:27:46.219Z,16.43
2018-04-17T21:30:13.746Z,16.42
2018-04-17T21:32:41.312Z,16.36
2018-04-17T21:35:09.198Z,16.35
2018-04-17T21:37:36.776Z,16.37
2018-04-17T21:40:04.391Z,16.35
2018-04-17T21:42:31.927Z,16.31
2018-04-17T21:44:59.478Z,16.24
2018-04-17T21:47:27.006Z,16.17
2018-04-17T21:49:54.614Z,16.20
2018-04-17T21:52:22.166Z,16.18
2018-04-17T21:54:49.694Z,16.16
2018-04-17T21:57:17.254Z,16.10
2018-04-17T21:59:44.833Z,16.07
2018-04-17T22:02:12.364Z,16.07
2018-04-17T22:04:39.939Z,16.09
2018-04-17T22:07:07.498Z,16.08
2018-04-17T22:09:35.115Z,16.10
2018-04-17T22:12:02.640Z,16.06
2018-04-17T22:14:30.157Z,16.00
2018-04-17T22:16:57.720Z,15.91
2018-04-17T22:19:25.285Z,15.96
2018-04-17T22:21:52.810Z,15.94
2018-04-17T22:24:20.366Z,15.92
2018-04-17T22:26:47.914Z,15.90
2018-04-17T22:29:15.489Z,15.90
2018-04-17T22:31:43.085Z,15.89
2018-04-17T22:34:10.609Z,15.87
2018-04-17T22:36:38.134Z,15.86
2018-04-17T22:39:06.625Z,15.82
2018-04-17T22:41:34.176Z,15.76
2018-04-17T22:44:01.726Z,15.73
2018-04-17T22:46:29.281Z,15.72
2018-04-17T22:48:56.814Z,15.72
2018-04-17T22:51:24.599Z,15.67
2018-04-17T22:53:52.165Z,15.63
2018-04-17T22:56:19.695Z,15.66
2018-04-17T22:58:47.221Z,15.65
2018-04-17T23:01:14.762Z,15.64
2018-04-17T23:03:42.302Z,15.66
2018-04-17T23:06:09.819Z,15.68
2018-04-17T23:08:37.367Z,15.64
2018-04-17T23:11:04.919Z,15.65
2018-04-17T23:13:32.480Z,15.63
2018-04-17T23:16:00.053Z,15.60
2018-04-17T23:18:27.593Z,15.56
2018-04-17T23:20:55.139Z,15.56
2018-04-17T23:23:22.672Z,15.51
2018-04-17T23:25:50.182Z,15.42
2018-04-17T23:28:17.766Z,15.41
2018-04-17T23:30:46.216Z,15.39
2018-04-17T23:33:13.749Z,15.38
2018-04-17T23:35:41.339Z,15.35
2018-04-17T23:38:08.913Z,15.34
2018-04-17T23:40:36.461Z,15.35
2018-04-17T23:43:03.987Z,15.36
2018-04-17T23:45:31.562Z,15.36
2018-04-17T23:47:59.100Z,15.30
2018-04-17T23:50:26.623Z,15.26
2018-04-17T23:52:54.545Z,15.23
2018-04-17T23:55:22.309Z,15.21
2018-04-17T23:57:49.847Z,15.19
